sensor_id;sensor_type;location;lat;lon;timestamp;P1;durP1;ratioP1;P2;durP2;ratioP2
55368;SDS011;41247;49.736;8.752;2023-03-23T00:02:45;1.85;;;0.95;;
55368;SDS011;41247;49.736;8.752;2023-03-23T00:06:26;1.77;;;0.80;;
55368;SDS011;41247;49.736;8.752;2023-03-23T00:10:08;1.95;;;1.00;;
55368;SDS011;41247;49.736;8.752;2023-03-23T00:13:49;1.10;;;0.80;;
55368;SDS011;41247;49.736;8.752;2023-03-23T00:17:31;2.28;;;0.88;;
55368;SDS011;41247;49.736;8.752;2023-03-23T00:21:12;2.50;;;1.02;;
55368;SDS011;41247;49.736;8.752;2023-03-23T00:24:54;1.33;;;1.02;;
55368;SDS011;41247;49.736;8.752;2023-03-23T00:28:35;1.42;;;1.00;;
55368;SDS011;41247;49.736;8.752;2023-03-23T00:32:15;1.50;;;1.00;;
55368;SDS011;41247;49.736;8.752;2023-03-23T00:35:56;3.10;;;0.98;;
55368;SDS011;41247;49.736;8.752;2023-03-23T00:39:37;4.35;;;1.02;;
55368;SDS011;41247;49.736;8.752;2023-03-23T00:43:19;1.95;;;0.98;;
55368;SDS011;41247;49.736;8.752;2023-03-23T00:47:00;1.40;;;0.98;;
55368;SDS011;41247;49.736;8.752;2023-03-23T00:50:42;1.67;;;1.00;;
55368;SDS011;41247;49.736;8.752;2023-03-23T00:54:23;3.33;;;0.88;;
55368;SDS011;41247;49.736;8.752;2023-03-23T00:58:05;3.03;;;1.30;;
55368;SDS011;41247;49.736;8.752;2023-03-23T01:01:46;1.83;;;1.00;;
55368;SDS011;41247;49.736;8.752;2023-03-23T01:05:27;1.77;;;1.02;;
55368;SDS011;41247;49.736;8.752;2023-03-23T01:09:08;1.75;;;0.80;;
55368;SDS011;41247;49.736;8.752;2023-03-23T01:12:52;1.95;;;1.20;;
55368;SDS011;41247;49.736;8.752;2023-03-23T01:16:34;6.07;;;1.30;;
55368;SDS011;41247;49.736;8.752;2023-03-23T01:20:15;1.90;;;0.80;;
55368;SDS011;41247;49.736;8.752;2023-03-23T01:23:55;2.95;;;1.00;;
55368;SDS011;41247;49.736;8.752;2023-03-23T01:27:36;1.08;;;0.80;;
55368;SDS011;41247;49.736;8.752;2023-03-23T01:31:19;2.65;;;0.90;;
55368;SDS011;41247;49.736;8.752;2023-03-23T01:35:02;1.33;;;0.70;;
55368;SDS011;41247;49.736;8.752;2023-03-23T01:38:44;1.70;;;0.70;;
55368;SDS011;41247;49.736;8.752;2023-03-23T01:42:30;2.80;;;0.85;;
55368;SDS011;41247;49.736;8.752;2023-03-23T01:46:14;1.67;;;0.70;;
55368;SDS011;41247;49.736;8.752;2023-03-23T01:49:54;1.70;;;0.77;;
55368;SDS011;41247;49.736;8.752;2023-03-23T01:53:40;1.75;;;0.93;;
55368;SDS011;41247;49.736;8.752;2023-03-23T01:57:26;1.95;;;0.90;;
55368;SDS011;41247;49.736;8.752;2023-03-23T02:01:09;3.15;;;0.90;;
55368;SDS011;41247;49.736;8.752;2023-03-23T02:04:51;1.15;;;0.85;;
55368;SDS011;41247;49.736;8.752;2023-03-23T02:08:38;2.20;;;0.90;;
55368;SDS011;41247;49.736;8.752;2023-03-23T02:12:21;2.38;;;1.00;;
55368;SDS011;41247;49.736;8.752;2023-03-23T02:16:04;1.55;;;0.90;;
55368;SDS011;41247;49.736;8.752;2023-03-23T02:28:26;0.93;;;0.80;;
55368;SDS011;41247;49.736;8.752;2023-03-23T02:32:49;2.15;;;0.82;;
55368;SDS011;41247;49.736;8.752;2023-03-23T02:37:08;2.33;;;0.90;;
55368;SDS011;41247;49.736;8.752;2023-03-23T02:40:54;1.85;;;0.90;;
55368;SDS011;41247;49.736;8.752;2023-03-23T02:44:40;3.47;;;1.42;;
55368;SDS011;41247;49.736;8.752;2023-03-23T02:48:24;2.03;;;0.98;;
55368;SDS011;41247;49.736;8.752;2023-03-23T02:52:11;2.40;;;1.10;;
55368;SDS011;41247;49.736;8.752;2023-03-23T02:55:56;3.90;;;1.00;;
55368;SDS011;41247;49.736;8.752;2023-03-23T02:59:38;1.48;;;1.05;;
55368;SDS011;41247;49.736;8.752;2023-03-23T03:03:20;3.92;;;1.00;;
55368;SDS011;41247;49.736;8.752;2023-03-23T03:07:14;1.50;;;1.00;;
55368;SDS011;41247;49.736;8.752;2023-03-23T03:11:05;1.10;;;0.80;;
55368;SDS011;41247;49.736;8.752;2023-03-23T03:14:56;2.00;;;1.23;;
55368;SDS011;41247;49.736;8.752;2023-03-23T03:23:06;2.13;;;1.08;;
55368;SDS011;41247;49.736;8.752;2023-03-23T03:26:50;2.85;;;1.10;;
55368;SDS011;41247;49.736;8.752;2023-03-23T03:30:33;1.80;;;0.85;;
55368;SDS011;41247;49.736;8.752;2023-03-23T03:34:16;3.35;;;1.10;;
55368;SDS011;41247;49.736;8.752;2023-03-23T03:37:57;2.33;;;0.80;;
55368;SDS011;41247;49.736;8.752;2023-03-23T03:41:47;2.03;;;1.00;;
55368;SDS011;41247;49.736;8.752;2023-03-23T03:45:28;0.98;;;0.80;;
55368;SDS011;41247;49.736;8.752;2023-03-23T03:49:09;3.30;;;1.00;;
55368;SDS011;41247;49.736;8.752;2023-03-23T03:52:51;2.03;;;1.00;;
55368;SDS011;41247;49.736;8.752;2023-03-23T03:56:31;1.13;;;0.85;;
55368;SDS011;41247;49.736;8.752;2023-03-23T04:00:12;2.92;;;1.02;;
55368;SDS011;41247;49.736;8.752;2023-03-23T04:03:53;1.92;;;0.93;;
55368;SDS011;41247;49.736;8.752;2023-03-23T04:07:34;1.40;;;0.90;;
55368;SDS011;41247;49.736;8.752;2023-03-23T04:11:16;3.78;;;1.00;;
55368;SDS011;41247;49.736;8.752;2023-03-23T04:14:57;2.38;;;0.90;;
55368;SDS011;41247;49.736;8.752;2023-03-23T04:18:38;2.08;;;0.98;;
55368;SDS011;41247;49.736;8.752;2023-03-23T04:22:19;1.83;;;1.00;;
55368;SDS011;41247;49.736;8.752;2023-03-23T04:26:00;3.40;;;1.00;;
55368;SDS011;41247;49.736;8.752;2023-03-23T04:29:41;2.33;;;1.10;;
55368;SDS011;41247;49.736;8.752;2023-03-23T04:33:22;1.63;;;1.02;;
55368;SDS011;41247;49.736;8.752;2023-03-23T04:37:05;4.75;;;1.30;;
55368;SDS011;41247;49.736;8.752;2023-03-23T04:40:46;3.28;;;1.10;;
55368;SDS011;41247;49.736;8.752;2023-03-23T04:44:28;1.57;;;1.17;;
55368;SDS011;41247;49.736;8.752;2023-03-23T04:48:09;3.70;;;1.25;;
55368;SDS011;41247;49.736;8.752;2023-03-23T04:51:50;3.03;;;1.20;;
55368;SDS011;41247;49.736;8.752;2023-03-23T04:55:31;2.38;;;1.20;;
55368;SDS011;41247;49.736;8.752;2023-03-23T04:59:14;1.42;;;0.93;;
55368;SDS011;41247;49.736;8.752;2023-03-23T05:02:55;2.92;;;1.30;;
55368;SDS011;41247;49.736;8.752;2023-03-23T05:06:36;3.05;;;1.27;;
55368;SDS011;41247;49.736;8.752;2023-03-23T05:10:16;2.20;;;1.33;;
55368;SDS011;41247;49.736;8.752;2023-03-23T05:13:57;3.30;;;1.10;;
55368;SDS011;41247;49.736;8.752;2023-03-23T05:17:38;2.17;;;1.10;;
55368;SDS011;41247;49.736;8.752;2023-03-23T05:21:19;2.40;;;1.50;;
55368;SDS011;41247;49.736;8.752;2023-03-23T05:25:00;2.78;;;1.30;;
55368;SDS011;41247;49.736;8.752;2023-03-23T05:28:40;1.80;;;1.00;;
55368;SDS011;41247;49.736;8.752;2023-03-23T05:32:21;2.25;;;1.13;;
55368;SDS011;41247;49.736;8.752;2023-03-23T05:36:02;2.95;;;1.40;;
55368;SDS011;41247;49.736;8.752;2023-03-23T05:39:42;5.20;;;1.45;;
55368;SDS011;41247;49.736;8.752;2023-03-23T05:43:23;4.95;;;1.65;;
55368;SDS011;41247;49.736;8.752;2023-03-23T05:47:03;3.85;;;1.50;;
55368;SDS011;41247;49.736;8.752;2023-03-23T05:50:44;5.90;;;1.65;;
55368;SDS011;41247;49.736;8.752;2023-03-23T05:54:25;3.22;;;1.50;;
55368;SDS011;41247;49.736;8.752;2023-03-23T05:58:05;2.42;;;1.38;;
55368;SDS011;41247;49.736;8.752;2023-03-23T06:01:46;1.73;;;1.20;;
55368;SDS011;41247;49.736;8.752;2023-03-23T06:05:27;6.20;;;1.60;;
55368;SDS011;41247;49.736;8.752;2023-03-23T06:09:07;2.92;;;1.27;;
55368;SDS011;41247;49.736;8.752;2023-03-23T06:12:49;4.68;;;1.00;;
55368;SDS011;41247;49.736;8.752;2023-03-23T06:16:30;3.88;;;1.27;;
55368;SDS011;41247;49.736;8.752;2023-03-23T06:20:11;2.40;;;1.20;;
55368;SDS011;41247;49.736;8.752;2023-03-23T06:23:51;5.32;;;1.10;;
55368;SDS011;41247;49.736;8.752;2023-03-23T06:27:32;2.10;;;1.40;;
55368;SDS011;41247;49.736;8.752;2023-03-23T06:31:13;1.65;;;1.20;;
55368;SDS011;41247;49.736;8.752;2023-03-23T06:34:54;2.50;;;1.38;;
55368;SDS011;41247;49.736;8.752;2023-03-23T06:38:35;1.73;;;1.13;;
55368;SDS011;41247;49.736;8.752;2023-03-23T06:42:16;1.98;;;1.20;;
55368;SDS011;41247;49.736;8.752;2023-03-23T06:46:00;2.70;;;1.17;;
55368;SDS011;41247;49.736;8.752;2023-03-23T06:49:40;2.00;;;1.25;;
55368;SDS011;41247;49.736;8.752;2023-03-23T06:53:21;4.28;;;0.90;;
55368;SDS011;41247;49.736;8.752;2023-03-23T06:57:02;1.42;;;1.13;;
55368;SDS011;41247;49.736;8.752;2023-03-23T07:00:42;2.38;;;1.25;;
55368;SDS011;41247;49.736;8.752;2023-03-23T07:04:23;5.55;;;1.48;;
55368;SDS011;41247;49.736;8.752;2023-03-23T07:08:04;1.85;;;1.20;;
55368;SDS011;41247;49.736;8.752;2023-03-23T07:11:45;3.45;;;1.30;;
55368;SDS011;41247;49.736;8.752;2023-03-23T07:15:25;2.47;;;1.00;;
55368;SDS011;41247;49.736;8.752;2023-03-23T07:19:06;3.47;;;1.15;;
55368;SDS011;41247;49.736;8.752;2023-03-23T07:22:47;2.90;;;1.33;;
55368;SDS011;41247;49.736;8.752;2023-03-23T07:26:27;2.42;;;1.20;;
55368;SDS011;41247;49.736;8.752;2023-03-23T07:30:08;2.85;;;1.08;;
55368;SDS011;41247;49.736;8.752;2023-03-23T07:33:49;2.28;;;1.15;;
55368;SDS011;41247;49.736;8.752;2023-03-23T07:37:30;4.90;;;1.48;;
55368;SDS011;41247;49.736;8.752;2023-03-23T07:41:10;1.67;;;1.05;;
55368;SDS011;41247;49.736;8.752;2023-03-23T07:44:52;1.77;;;1.27;;
55368;SDS011;41247;49.736;8.752;2023-03-23T07:48:33;2.78;;;1.20;;
55368;SDS011;41247;49.736;8.752;2023-03-23T07:52:13;2.35;;;1.00;;
55368;SDS011;41247;49.736;8.752;2023-03-23T07:55:54;2.47;;;1.20;;
55368;SDS011;41247;49.736;8.752;2023-03-23T07:59:35;1.90;;;1.10;;
55368;SDS011;41247;49.736;8.752;2023-03-23T08:03:15;2.38;;;1.10;;
55368;SDS011;41247;49.736;8.752;2023-03-23T08:06:56;1.50;;;0.90;;
55368;SDS011;41247;49.736;8.752;2023-03-23T08:10:37;2.15;;;1.02;;
55368;SDS011;41247;49.736;8.752;2023-03-23T08:14:17;1.67;;;0.73;;
55368;SDS011;41247;49.736;8.752;2023-03-23T08:17:58;3.60;;;1.00;;
55368;SDS011;41247;49.736;8.752;2023-03-23T08:21:38;1.20;;;0.60;;
55368;SDS011;41247;49.736;8.752;2023-03-23T08:25:19;1.80;;;0.82;;
55368;SDS011;41247;49.736;8.752;2023-03-23T08:29:01;3.72;;;0.90;;
55368;SDS011;41247;49.736;8.752;2023-03-23T08:32:41;2.90;;;0.77;;
55368;SDS011;41247;49.736;8.752;2023-03-23T08:36:23;0.93;;;0.82;;
55368;SDS011;41247;49.736;8.752;2023-03-23T08:40:04;1.77;;;1.05;;
55368;SDS011;41247;49.736;8.752;2023-03-23T08:43:46;2.90;;;1.00;;
55368;SDS011;41247;49.736;8.752;2023-03-23T08:47:27;1.23;;;1.00;;
55368;SDS011;41247;49.736;8.752;2023-03-23T08:51:07;3.65;;;0.90;;
55368;SDS011;41247;49.736;8.752;2023-03-23T08:54:48;1.73;;;0.90;;
55368;SDS011;41247;49.736;8.752;2023-03-23T08:58:29;3.25;;;0.90;;
55368;SDS011;41247;49.736;8.752;2023-03-23T09:02:10;4.85;;;1.05;;
55368;SDS011;41247;49.736;8.752;2023-03-23T09:05:51;1.95;;;1.15;;
55368;SDS011;41247;49.736;8.752;2023-03-23T09:09:32;2.78;;;1.33;;
55368;SDS011;41247;49.736;8.752;2023-03-23T09:13:12;1.15;;;1.00;;
55368;SDS011;41247;49.736;8.752;2023-03-23T09:16:53;4.57;;;1.27;;
55368;SDS011;41247;49.736;8.752;2023-03-23T09:20:33;2.90;;;1.25;;
55368;SDS011;41247;49.736;8.752;2023-03-23T09:24:14;2.00;;;1.10;;
55368;SDS011;41247;49.736;8.752;2023-03-23T09:27:56;3.40;;;1.50;;
55368;SDS011;41247;49.736;8.752;2023-03-23T09:31:38;5.10;;;1.10;;
55368;SDS011;41247;49.736;8.752;2023-03-23T09:35:20;1.92;;;1.17;;
55368;SDS011;41247;49.736;8.752;2023-03-23T09:39:01;1.75;;;1.20;;
55368;SDS011;41247;49.736;8.752;2023-03-23T09:51:23;1.00;;;0.90;;
55368;SDS011;41247;49.736;8.752;2023-03-23T09:55:20;2.10;;;0.90;;
55368;SDS011;41247;49.736;8.752;2023-03-23T09:59:16;2.50;;;0.90;;
55368;SDS011;41247;49.736;8.752;2023-03-23T10:03:10;2.95;;;0.80;;
55368;SDS011;41247;49.736;8.752;2023-03-23T10:06:59;5.25;;;1.15;;
55368;SDS011;41247;49.736;8.752;2023-03-23T10:15:20;2.63;;;0.73;;
55368;SDS011;41247;49.736;8.752;2023-03-23T10:19:11;2.53;;;0.80;;
55368;SDS011;41247;49.736;8.752;2023-03-23T10:23:12;2.03;;;0.90;;
55368;SDS011;41247;49.736;8.752;2023-03-23T10:27:19;0.93;;;0.70;;
55368;SDS011;41247;49.736;8.752;2023-03-23T10:31:11;1.10;;;0.70;;
55368;SDS011;41247;49.736;8.752;2023-03-23T10:34:57;1.23;;;0.70;;
55368;SDS011;41247;49.736;8.752;2023-03-23T10:38:45;1.75;;;0.60;;
55368;SDS011;41247;49.736;8.752;2023-03-23T10:42:32;4.35;;;0.98;;
55368;SDS011;41247;49.736;8.752;2023-03-23T10:46:39;2.97;;;0.73;;
55368;SDS011;41247;49.736;8.752;2023-03-23T10:50:31;1.55;;;0.80;;
55368;SDS011;41247;49.736;8.752;2023-03-23T10:54:25;1.17;;;0.70;;
55368;SDS011;41247;49.736;8.752;2023-03-23T10:58:23;1.90;;;0.70;;
55368;SDS011;41247;49.736;8.752;2023-03-23T11:02:14;1.98;;;1.10;;
55368;SDS011;41247;49.736;8.752;2023-03-23T11:06:02;1.83;;;1.05;;
55368;SDS011;41247;49.736;8.752;2023-03-23T11:09:53;1.13;;;0.93;;
55368;SDS011;41247;49.736;8.752;2023-03-23T11:13:39;1.60;;;0.98;;
55368;SDS011;41247;49.736;8.752;2023-03-23T11:17:24;3.03;;;1.08;;
55368;SDS011;41247;49.736;8.752;2023-03-23T11:21:07;2.75;;;0.88;;
55368;SDS011;41247;49.736;8.752;2023-03-23T11:24:55;3.10;;;1.08;;
55368;SDS011;41247;49.736;8.752;2023-03-23T11:28:50;2.00;;;1.20;;
55368;SDS011;41247;49.736;8.752;2023-03-23T11:32:42;2.25;;;0.80;;
55368;SDS011;41247;49.736;8.752;2023-03-23T11:36:31;1.40;;;0.77;;
55368;SDS011;41247;49.736;8.752;2023-03-23T11:40:16;2.47;;;1.17;;
55368;SDS011;41247;49.736;8.752;2023-03-23T11:44:08;2.05;;;1.00;;
55368;SDS011;41247;49.736;8.752;2023-03-23T11:52:10;1.73;;;0.98;;
55368;SDS011;41247;49.736;8.752;2023-03-23T12:00:17;2.58;;;1.27;;
55368;SDS011;41247;49.736;8.752;2023-03-23T12:08:43;5.85;;;1.30;;
55368;SDS011;41247;49.736;8.752;2023-03-23T12:13:14;3.08;;;1.23;;
55368;SDS011;41247;49.736;8.752;2023-03-23T12:41:11;1.25;;;0.90;;
55368;SDS011;41247;49.736;8.752;2023-03-23T12:48:54;0.75;;;0.70;;
55368;SDS011;41247;49.736;8.752;2023-03-23T12:52:44;1.55;;;0.60;;
55368;SDS011;41247;49.736;8.752;2023-03-23T12:56:35;0.90;;;0.63;;
55368;SDS011;41247;49.736;8.752;2023-03-23T13:05:05;1.20;;;0.70;;
55368;SDS011;41247;49.736;8.752;2023-03-23T13:09:04;1.55;;;0.82;;
55368;SDS011;41247;49.736;8.752;2023-03-23T13:13:13;3.22;;;0.60;;
55368;SDS011;41247;49.736;8.752;2023-03-23T13:25:19;1.45;;;0.60;;
55368;SDS011;41247;49.736;8.752;2023-03-23T13:29:16;0.90;;;0.70;;
55368;SDS011;41247;49.736;8.752;2023-03-23T13:33:02;1.15;;;0.70;;
55368;SDS011;41247;49.736;8.752;2023-03-23T13:40:33;3.88;;;0.77;;
55368;SDS011;41247;49.736;8.752;2023-03-23T13:44:22;1.00;;;0.73;;
55368;SDS011;41247;49.736;8.752;2023-03-23T13:48:17;2.22;;;0.90;;
55368;SDS011;41247;49.736;8.752;2023-03-23T13:52:15;0.82;;;0.70;;
55368;SDS011;41247;49.736;8.752;2023-03-23T13:56:22;4.83;;;1.10;;
55368;SDS011;41247;49.736;8.752;2023-03-23T14:04:48;1.35;;;0.82;;
55368;SDS011;41247;49.736;8.752;2023-03-23T14:12:28;2.20;;;0.70;;
55368;SDS011;41247;49.736;8.752;2023-03-23T14:16:26;2.83;;;0.63;;
55368;SDS011;41247;49.736;8.752;2023-03-23T14:20:26;0.90;;;0.60;;
55368;SDS011;41247;49.736;8.752;2023-03-23T14:24:15;1.58;;;0.60;;
55368;SDS011;41247;49.736;8.752;2023-03-23T14:28:00;2.22;;;0.73;;
55368;SDS011;41247;49.736;8.752;2023-03-23T14:31:41;1.23;;;0.70;;
55368;SDS011;41247;49.736;8.752;2023-03-23T14:35:23;1.48;;;0.57;;
55368;SDS011;41247;49.736;8.752;2023-03-23T14:39:20;0.70;;;0.52;;
55368;SDS011;41247;49.736;8.752;2023-03-23T14:43:05;1.15;;;0.70;;
55368;SDS011;41247;49.736;8.752;2023-03-23T14:46:45;2.70;;;0.70;;
55368;SDS011;41247;49.736;8.752;2023-03-23T14:50:28;1.95;;;0.60;;
55368;SDS011;41247;49.736;8.752;2023-03-23T14:54:15;2.50;;;0.77;;
55368;SDS011;41247;49.736;8.752;2023-03-23T14:58:05;1.20;;;0.85;;
55368;SDS011;41247;49.736;8.752;2023-03-23T15:01:49;1.08;;;0.80;;
55368;SDS011;41247;49.736;8.752;2023-03-23T15:05:35;1.25;;;0.88;;
55368;SDS011;41247;49.736;8.752;2023-03-23T15:09:22;3.40;;;1.00;;
55368;SDS011;41247;49.736;8.752;2023-03-23T15:13:04;1.88;;;1.00;;
55368;SDS011;41247;49.736;8.752;2023-03-23T15:16:45;4.10;;;1.10;;
55368;SDS011;41247;49.736;8.752;2023-03-23T15:20:29;1.73;;;0.77;;
55368;SDS011;41247;49.736;8.752;2023-03-23T15:24:32;2.92;;;1.08;;
55368;SDS011;41247;49.736;8.752;2023-03-23T15:28:18;2.83;;;1.20;;
55368;SDS011;41247;49.736;8.752;2023-03-23T15:32:01;7.10;;;0.95;;
55368;SDS011;41247;49.736;8.752;2023-03-23T15:35:45;4.68;;;1.00;;
55368;SDS011;41247;49.736;8.752;2023-03-23T15:39:28;2.92;;;0.90;;
55368;SDS011;41247;49.736;8.752;2023-03-23T15:43:14;1.42;;;0.73;;
55368;SDS011;41247;49.736;8.752;2023-03-23T15:47:03;1.83;;;0.50;;
55368;SDS011;41247;49.736;8.752;2023-03-23T15:50:54;2.40;;;0.52;;
55368;SDS011;41247;49.736;8.752;2023-03-23T15:54:36;1.65;;;0.70;;
55368;SDS011;41247;49.736;8.752;2023-03-23T15:58:16;0.80;;;0.57;;
55368;SDS011;41247;49.736;8.752;2023-03-23T16:01:57;0.82;;;0.60;;
55368;SDS011;41247;49.736;8.752;2023-03-23T16:05:37;1.38;;;0.65;;
55368;SDS011;41247;49.736;8.752;2023-03-23T16:09:19;1.40;;;0.70;;
55368;SDS011;41247;49.736;8.752;2023-03-23T16:13:00;4.13;;;0.60;;
55368;SDS011;41247;49.736;8.752;2023-03-23T16:16:44;2.30;;;0.82;;
55368;SDS011;41247;49.736;8.752;2023-03-23T16:20:28;0.98;;;0.70;;
55368;SDS011;41247;49.736;8.752;2023-03-23T16:24:10;1.33;;;0.77;;
55368;SDS011;41247;49.736;8.752;2023-03-23T16:27:50;1.98;;;0.80;;
55368;SDS011;41247;49.736;8.752;2023-03-23T16:31:31;2.00;;;0.80;;
55368;SDS011;41247;49.736;8.752;2023-03-23T16:35:12;2.67;;;1.30;;
55368;SDS011;41247;49.736;8.752;2023-03-23T16:38:54;1.92;;;0.98;;
55368;SDS011;41247;49.736;8.752;2023-03-23T16:42:35;2.00;;;1.20;;
55368;SDS011;41247;49.736;8.752;2023-03-23T16:46:15;3.88;;;1.15;;
55368;SDS011;41247;49.736;8.752;2023-03-23T16:49:56;2.10;;;1.27;;
55368;SDS011;41247;49.736;8.752;2023-03-23T16:53:36;1.40;;;0.93;;
55368;SDS011;41247;49.736;8.752;2023-03-23T16:57:18;2.25;;;1.20;;
55368;SDS011;41247;49.736;8.752;2023-03-23T17:00:59;2.80;;;1.13;;
55368;SDS011;41247;49.736;8.752;2023-03-23T17:04:44;1.42;;;0.90;;
55368;SDS011;41247;49.736;8.752;2023-03-23T17:08:25;1.90;;;1.40;;
55368;SDS011;41247;49.736;8.752;2023-03-23T17:12:06;1.90;;;1.30;;
55368;SDS011;41247;49.736;8.752;2023-03-23T17:15:50;1.92;;;1.30;;
55368;SDS011;41247;49.736;8.752;2023-03-23T17:19:33;3.17;;;1.20;;
55368;SDS011;41247;49.736;8.752;2023-03-23T17:23:13;1.77;;;1.20;;
55368;SDS011;41247;49.736;8.752;2023-03-23T17:26:54;3.60;;;1.40;;
55368;SDS011;41247;49.736;8.752;2023-03-23T17:30:35;1.98;;;1.20;;
55368;SDS011;41247;49.736;8.752;2023-03-23T17:34:20;3.40;;;1.50;;
55368;SDS011;41247;49.736;8.752;2023-03-23T17:38:00;4.35;;;1.63;;
55368;SDS011;41247;49.736;8.752;2023-03-23T17:41:41;3.40;;;1.77;;
55368;SDS011;41247;49.736;8.752;2023-03-23T17:45:21;2.42;;;2.10;;
55368;SDS011;41247;49.736;8.752;2023-03-23T17:49:02;6.22;;;2.17;;
55368;SDS011;41247;49.736;8.752;2023-03-23T17:52:43;5.53;;;1.95;;
55368;SDS011;41247;49.736;8.752;2023-03-23T17:56:23;2.72;;;2.10;;
55368;SDS011;41247;49.736;8.752;2023-03-23T18:00:04;6.60;;;2.67;;
55368;SDS011;41247;49.736;8.752;2023-03-23T18:03:46;4.65;;;2.17;;
55368;SDS011;41247;49.736;8.752;2023-03-23T18:07:26;3.83;;;2.58;;
55368;SDS011;41247;49.736;8.752;2023-03-23T18:11:07;4.70;;;2.35;;
55368;SDS011;41247;49.736;8.752;2023-03-23T18:14:48;5.88;;;2.47;;
55368;SDS011;41247;49.736;8.752;2023-03-23T18:18:28;4.95;;;2.35;;
55368;SDS011;41247;49.736;8.752;2023-03-23T18:22:09;4.55;;;2.60;;
55368;SDS011;41247;49.736;8.752;2023-03-23T18:25:50;7.40;;;2.58;;
55368;SDS011;41247;49.736;8.752;2023-03-23T18:29:31;4.28;;;2.90;;
55368;SDS011;41247;49.736;8.752;2023-03-23T18:33:12;4.35;;;2.60;;
55368;SDS011;41247;49.736;8.752;2023-03-23T18:36:53;3.38;;;2.60;;
55368;SDS011;41247;49.736;8.752;2023-03-23T18:40:33;6.05;;;3.20;;
55368;SDS011;41247;49.736;8.752;2023-03-23T18:44:14;4.53;;;3.05;;
55368;SDS011;41247;49.736;8.752;2023-03-23T18:47:54;7.30;;;3.25;;
55368;SDS011;41247;49.736;8.752;2023-03-23T18:51:36;7.85;;;3.13;;
55368;SDS011;41247;49.736;8.752;2023-03-23T18:55:16;3.85;;;2.70;;
55368;SDS011;41247;49.736;8.752;2023-03-23T18:58:57;4.65;;;2.83;;
55368;SDS011;41247;49.736;8.752;2023-03-23T19:02:40;5.50;;;2.55;;
55368;SDS011;41247;49.736;8.752;2023-03-23T19:06:24;4.53;;;2.50;;
55368;SDS011;41247;49.736;8.752;2023-03-23T19:10:06;4.45;;;2.58;;
55368;SDS011;41247;49.736;8.752;2023-03-23T19:13:47;7.30;;;2.63;;
55368;SDS011;41247;49.736;8.752;2023-03-23T19:17:30;4.75;;;2.70;;
55368;SDS011;41247;49.736;8.752;2023-03-23T19:21:10;5.72;;;2.40;;
55368;SDS011;41247;49.736;8.752;2023-03-23T19:24:51;5.70;;;3.05;;
55368;SDS011;41247;49.736;8.752;2023-03-23T19:28:32;3.22;;;2.20;;
55368;SDS011;41247;49.736;8.752;2023-03-23T19:32:12;4.05;;;2.70;;
55368;SDS011;41247;49.736;8.752;2023-03-23T19:35:53;7.18;;;3.50;;
55368;SDS011;41247;49.736;8.752;2023-03-23T19:39:33;4.45;;;3.08;;
55368;SDS011;41247;49.736;8.752;2023-03-23T19:43:14;5.10;;;2.90;;
55368;SDS011;41247;49.736;8.752;2023-03-23T19:46:55;4.53;;;2.67;;
55368;SDS011;41247;49.736;8.752;2023-03-23T19:50:35;3.22;;;2.47;;
55368;SDS011;41247;49.736;8.752;2023-03-23T19:54:16;6.38;;;2.70;;
55368;SDS011;41247;49.736;8.752;2023-03-23T19:57:57;5.82;;;2.72;;
55368;SDS011;41247;49.736;8.752;2023-03-23T20:01:37;5.20;;;2.70;;
55368;SDS011;41247;49.736;8.752;2023-03-23T20:05:18;3.25;;;2.40;;
55368;SDS011;41247;49.736;8.752;2023-03-23T20:08:59;4.22;;;2.60;;
55368;SDS011;41247;49.736;8.752;2023-03-23T20:12:39;4.97;;;2.78;;
55368;SDS011;41247;49.736;8.752;2023-03-23T20:16:20;5.28;;;2.95;;
55368;SDS011;41247;49.736;8.752;2023-03-23T20:20:01;5.40;;;2.90;;
55368;SDS011;41247;49.736;8.752;2023-03-23T20:23:41;6.15;;;2.90;;
55368;SDS011;41247;49.736;8.752;2023-03-23T20:27:23;4.70;;;2.45;;
55368;SDS011;41247;49.736;8.752;2023-03-23T20:31:05;4.68;;;2.88;;
55368;SDS011;41247;49.736;8.752;2023-03-23T20:34:50;4.70;;;2.45;;
55368;SDS011;41247;49.736;8.752;2023-03-23T20:38:30;5.22;;;2.55;;
55368;SDS011;41247;49.736;8.752;2023-03-23T20:42:11;7.47;;;2.40;;
55368;SDS011;41247;49.736;8.752;2023-03-23T20:45:52;6.68;;;2.53;;
55368;SDS011;41247;49.736;8.752;2023-03-23T20:49:33;5.38;;;2.08;;
55368;SDS011;41247;49.736;8.752;2023-03-23T20:53:15;3.17;;;2.08;;
55368;SDS011;41247;49.736;8.752;2023-03-23T20:56:56;5.10;;;1.95;;
55368;SDS011;41247;49.736;8.752;2023-03-23T21:00:38;3.45;;;1.90;;
55368;SDS011;41247;49.736;8.752;2023-03-23T21:04:20;2.60;;;1.80;;
55368;SDS011;41247;49.736;8.752;2023-03-23T21:08:03;2.45;;;1.77;;
55368;SDS011;41247;49.736;8.752;2023-03-23T21:11:44;5.18;;;2.28;;
55368;SDS011;41247;49.736;8.752;2023-03-23T21:15:25;7.85;;;1.70;;
55368;SDS011;41247;49.736;8.752;2023-03-23T21:19:06;2.42;;;1.77;;
55368;SDS011;41247;49.736;8.752;2023-03-23T21:22:46;5.93;;;1.95;;
55368;SDS011;41247;49.736;8.752;2023-03-23T21:26:27;2.58;;;1.60;;
55368;SDS011;41247;49.736;8.752;2023-03-23T21:30:09;3.40;;;2.00;;
55368;SDS011;41247;49.736;8.752;2023-03-23T21:33:49;2.85;;;1.70;;
55368;SDS011;41247;49.736;8.752;2023-03-23T21:37:32;3.55;;;1.80;;
55368;SDS011;41247;49.736;8.752;2023-03-23T21:41:13;4.38;;;2.00;;
55368;SDS011;41247;49.736;8.752;2023-03-23T21:44:54;8.77;;;2.83;;
55368;SDS011;41247;49.736;8.752;2023-03-23T21:48:36;3.47;;;1.85;;
55368;SDS011;41247;49.736;8.752;2023-03-23T21:52:16;3.08;;;1.77;;
55368;SDS011;41247;49.736;8.752;2023-03-23T21:55:57;6.72;;;1.98;;
55368;SDS011;41247;49.736;8.752;2023-03-23T21:59:38;3.38;;;1.80;;
55368;SDS011;41247;49.736;8.752;2023-03-23T22:03:19;3.72;;;1.98;;
55368;SDS011;41247;49.736;8.752;2023-03-23T22:07:01;3.88;;;1.80;;
55368;SDS011;41247;49.736;8.752;2023-03-23T22:10:42;5.38;;;1.70;;
55368;SDS011;41247;49.736;8.752;2023-03-23T22:14:23;2.95;;;1.75;;
55368;SDS011;41247;49.736;8.752;2023-03-23T22:18:03;4.05;;;1.67;;
55368;SDS011;41247;49.736;8.752;2023-03-23T22:21:44;3.00;;;1.60;;
55368;SDS011;41247;49.736;8.752;2023-03-23T22:25:25;2.22;;;1.85;;
55368;SDS011;41247;49.736;8.752;2023-03-23T22:29:06;3.92;;;2.03;;
55368;SDS011;41247;49.736;8.752;2023-03-23T22:32:46;3.47;;;2.08;;
55368;SDS011;41247;49.736;8.752;2023-03-23T22:36:28;2.47;;;1.75;;
55368;SDS011;41247;49.736;8.752;2023-03-23T22:40:10;3.38;;;1.98;;
55368;SDS011;41247;49.736;8.752;2023-03-23T22:43:51;2.75;;;1.85;;
55368;SDS011;41247;49.736;8.752;2023-03-23T22:47:31;2.50;;;1.70;;
55368;SDS011;41247;49.736;8.752;2023-03-23T22:51:13;5.45;;;1.83;;
55368;SDS011;41247;49.736;8.752;2023-03-23T22:54:56;6.65;;;2.20;;
55368;SDS011;41247;49.736;8.752;2023-03-23T22:58:37;3.75;;;2.35;;
55368;SDS011;41247;49.736;8.752;2023-03-23T23:02:18;5.55;;;2.05;;
55368;SDS011;41247;49.736;8.752;2023-03-23T23:05:59;5.15;;;2.13;;
55368;SDS011;41247;49.736;8.752;2023-03-23T23:09:41;3.35;;;2.05;;
55368;SDS011;41247;49.736;8.752;2023-03-23T23:13:22;4.88;;;2.15;;
55368;SDS011;41247;49.736;8.752;2023-03-23T23:17:04;5.15;;;2.55;;
55368;SDS011;41247;49.736;8.752;2023-03-23T23:20:49;4.88;;;2.35;;
55368;SDS011;41247;49.736;8.752;2023-03-23T23:24:33;6.63;;;2.90;;
55368;SDS011;41247;49.736;8.752;2023-03-23T23:28:14;5.78;;;2.60;;
55368;SDS011;41247;49.736;8.752;2023-03-23T23:31:54;4.35;;;2.50;;
55368;SDS011;41247;49.736;8.752;2023-03-23T23:35:35;4.75;;;2.60;;
55368;SDS011;41247;49.736;8.752;2023-03-23T23:39:17;6.53;;;2.72;;
55368;SDS011;41247;49.736;8.752;2023-03-23T23:42:58;4.15;;;2.40;;
55368;SDS011;41247;49.736;8.752;2023-03-23T23:46:38;2.90;;;1.95;;
55368;SDS011;41247;49.736;8.752;2023-03-23T23:50:19;3.10;;;1.98;;
55368;SDS011;41247;49.736;8.752;2023-03-23T23:54:00;2.35;;;1.85;;
55368;SDS011;41247;49.736;8.752;2023-03-23T23:57:44;4.78;;;2.03;;
